sensor_id;sensor_type;location;lat;lon;timestamp;P1;durP1;ratioP1;P2;durP2;ratioP2
13641;SDS011;6894;52.196;9.904;2023-01-30T00:01:29;19.47;;;12.53;;
13641;SDS011;6894;52.196;9.904;2023-01-30T00:03:58;19.00;;;11.27;;
13641;SDS011;6894;52.196;9.904;2023-01-30T00:06:24;22.57;;;12.33;;
13641;SDS011;6894;52.196;9.904;2023-01-30T00:08:51;22.10;;;13.40;;
13641;SDS011;6894;52.196;9.904;2023-01-30T00:11:19;28.97;;;13.03;;
13641;SDS011;6894;52.196;9.904;2023-01-30T00:13:48;19.73;;;12.20;;
13641;SDS011;6894;52.196;9.904;2023-01-30T00:16:15;16.07;;;11.50;;
13641;SDS011;6894;52.196;9.904;2023-01-30T00:18:42;20.37;;;12.30;;
13641;SDS011;6894;52.196;9.904;2023-01-30T00:21:11;20.97;;;11.33;;
13641;SDS011;6894;52.196;9.904;2023-01-30T00:23:39;15.40;;;11.07;;
13641;SDS011;6894;52.196;9.904;2023-01-30T00:26:06;20.50;;;12.50;;
13641;SDS011;6894;52.196;9.904;2023-01-30T00:28:34;17.03;;;11.17;;
13641;SDS011;6894;52.196;9.904;2023-01-30T00:31:02;20.87;;;12.83;;
13641;SDS011;6894;52.196;9.904;2023-01-30T00:33:29;15.90;;;11.70;;
13641;SDS011;6894;52.196;9.904;2023-01-30T00:35:56;20.30;;;13.70;;
13641;SDS011;6894;52.196;9.904;2023-01-30T00:38:23;15.47;;;12.20;;
13641;SDS011;6894;52.196;9.904;2023-01-30T00:40:50;19.20;;;12.17;;
13641;SDS011;6894;52.196;9.904;2023-01-30T00:43:18;18.03;;;12.27;;
13641;SDS011;6894;52.196;9.904;2023-01-30T00:46:05;22.43;;;13.30;;
13641;SDS011;6894;52.196;9.904;2023-01-30T00:48:55;18.57;;;12.13;;
13641;SDS011;6894;52.196;9.904;2023-01-30T00:51:22;21.07;;;13.57;;
13641;SDS011;6894;52.196;9.904;2023-01-30T00:53:49;17.10;;;12.20;;
13641;SDS011;6894;52.196;9.904;2023-01-30T00:56:15;21.53;;;11.80;;
13641;SDS011;6894;52.196;9.904;2023-01-30T00:58:42;19.67;;;12.73;;
13641;SDS011;6894;52.196;9.904;2023-01-30T01:01:10;22.47;;;13.50;;
13641;SDS011;6894;52.196;9.904;2023-01-30T01:03:37;19.93;;;13.00;;
13641;SDS011;6894;52.196;9.904;2023-01-30T01:06:03;21.27;;;13.70;;
13641;SDS011;6894;52.196;9.904;2023-01-30T01:08:30;16.27;;;11.13;;
13641;SDS011;6894;52.196;9.904;2023-01-30T01:10:57;25.13;;;14.03;;
13641;SDS011;6894;52.196;9.904;2023-01-30T01:13:24;22.90;;;13.87;;
13641;SDS011;6894;52.196;9.904;2023-01-30T01:15:51;14.50;;;9.63;;
13641;SDS011;6894;52.196;9.904;2023-01-30T01:18:19;17.87;;;11.50;;
13641;SDS011;6894;52.196;9.904;2023-01-30T01:20:45;22.10;;;13.67;;
13641;SDS011;6894;52.196;9.904;2023-01-30T01:23:12;19.57;;;13.13;;
13641;SDS011;6894;52.196;9.904;2023-01-30T01:25:39;26.50;;;14.47;;
13641;SDS011;6894;52.196;9.904;2023-01-30T01:28:05;20.00;;;13.93;;
13641;SDS011;6894;52.196;9.904;2023-01-30T01:30:32;21.97;;;13.00;;
13641;SDS011;6894;52.196;9.904;2023-01-30T01:32:59;22.57;;;15.23;;
13641;SDS011;6894;52.196;9.904;2023-01-30T01:35:27;26.23;;;14.53;;
13641;SDS011;6894;52.196;9.904;2023-01-30T01:37:54;22.43;;;15.20;;
13641;SDS011;6894;52.196;9.904;2023-01-30T01:40:21;27.20;;;15.03;;
13641;SDS011;6894;52.196;9.904;2023-01-30T01:43:15;21.03;;;13.23;;
13641;SDS011;6894;52.196;9.904;2023-01-30T01:45:43;20.17;;;13.53;;
13641;SDS011;6894;52.196;9.904;2023-01-30T01:48:14;18.27;;;12.73;;
13641;SDS011;6894;52.196;9.904;2023-01-30T01:50:45;24.03;;;13.70;;
13641;SDS011;6894;52.196;9.904;2023-01-30T01:53:16;17.23;;;11.33;;
13641;SDS011;6894;52.196;9.904;2023-01-30T01:55:47;21.20;;;13.17;;
13641;SDS011;6894;52.196;9.904;2023-01-30T01:58:18;19.37;;;13.23;;
13641;SDS011;6894;52.196;9.904;2023-01-30T02:00:48;27.40;;;15.03;;
13641;SDS011;6894;52.196;9.904;2023-01-30T02:03:16;26.17;;;13.83;;
13641;SDS011;6894;52.196;9.904;2023-01-30T02:05:50;20.77;;;12.80;;
13641;SDS011;6894;52.196;9.904;2023-01-30T02:08:20;24.43;;;14.47;;
13641;SDS011;6894;52.196;9.904;2023-01-30T02:10:52;25.33;;;15.53;;
13641;SDS011;6894;52.196;9.904;2023-01-30T02:13:23;21.13;;;12.97;;
13641;SDS011;6894;52.196;9.904;2023-01-30T02:15:52;24.40;;;15.33;;
13641;SDS011;6894;52.196;9.904;2023-01-30T02:18:20;23.13;;;13.67;;
13641;SDS011;6894;52.196;9.904;2023-01-30T02:20:53;28.00;;;14.27;;
13641;SDS011;6894;52.196;9.904;2023-01-30T02:23:36;17.17;;;11.37;;
13641;SDS011;6894;52.196;9.904;2023-01-30T02:29:37;15.57;;;10.63;;
13641;SDS011;6894;52.196;9.904;2023-01-30T02:32:19;22.37;;;13.50;;
13641;SDS011;6894;52.196;9.904;2023-01-30T02:34:55;18.47;;;12.67;;
13641;SDS011;6894;52.196;9.904;2023-01-30T02:37:30;23.57;;;13.53;;
13641;SDS011;6894;52.196;9.904;2023-01-30T02:40:10;17.67;;;12.93;;
13641;SDS011;6894;52.196;9.904;2023-01-30T02:42:44;17.80;;;11.20;;
13641;SDS011;6894;52.196;9.904;2023-01-30T02:45:19;18.53;;;11.87;;
13641;SDS011;6894;52.196;9.904;2023-01-30T02:47:54;18.23;;;12.60;;
13641;SDS011;6894;52.196;9.904;2023-01-30T02:50:26;13.53;;;10.50;;
13641;SDS011;6894;52.196;9.904;2023-01-30T02:52:58;23.50;;;13.13;;
13641;SDS011;6894;52.196;9.904;2023-01-30T02:55:26;15.73;;;11.30;;
13641;SDS011;6894;52.196;9.904;2023-01-30T02:57:53;19.10;;;13.17;;
13641;SDS011;6894;52.196;9.904;2023-01-30T03:00:21;15.70;;;11.07;;
13641;SDS011;6894;52.196;9.904;2023-01-30T03:03:03;18.77;;;12.17;;
13641;SDS011;6894;52.196;9.904;2023-01-30T03:05:50;15.33;;;11.17;;
13641;SDS011;6894;52.196;9.904;2023-01-30T03:08:29;16.80;;;11.83;;
13641;SDS011;6894;52.196;9.904;2023-01-30T03:11:00;15.60;;;11.63;;
13641;SDS011;6894;52.196;9.904;2023-01-30T03:13:33;20.00;;;12.43;;
13641;SDS011;6894;52.196;9.904;2023-01-30T03:16:08;14.67;;;10.93;;
13641;SDS011;6894;52.196;9.904;2023-01-30T03:18:41;19.20;;;11.63;;
13641;SDS011;6894;52.196;9.904;2023-01-30T03:21:08;15.67;;;11.07;;
13641;SDS011;6894;52.196;9.904;2023-01-30T03:23:36;21.63;;;12.77;;
13641;SDS011;6894;52.196;9.904;2023-01-30T03:26:03;16.17;;;11.33;;
13641;SDS011;6894;52.196;9.904;2023-01-30T03:28:32;23.90;;;14.50;;
13641;SDS011;6894;52.196;9.904;2023-01-30T03:31:00;14.30;;;11.30;;
13641;SDS011;6894;52.196;9.904;2023-01-30T03:33:27;19.60;;;12.20;;
13641;SDS011;6894;52.196;9.904;2023-01-30T03:35:55;18.00;;;11.97;;
13641;SDS011;6894;52.196;9.904;2023-01-30T03:38:22;20.83;;;12.77;;
13641;SDS011;6894;52.196;9.904;2023-01-30T03:40:48;20.47;;;12.63;;
13641;SDS011;6894;52.196;9.904;2023-01-30T03:43:15;20.90;;;12.97;;
13641;SDS011;6894;52.196;9.904;2023-01-30T03:45:42;16.50;;;11.90;;
13641;SDS011;6894;52.196;9.904;2023-01-30T03:48:08;27.30;;;15.13;;
13641;SDS011;6894;52.196;9.904;2023-01-30T03:50:35;14.83;;;10.97;;
13641;SDS011;6894;52.196;9.904;2023-01-30T03:53:03;22.13;;;14.40;;
13641;SDS011;6894;52.196;9.904;2023-01-30T03:55:30;16.23;;;12.67;;
13641;SDS011;6894;52.196;9.904;2023-01-30T03:57:56;21.57;;;13.50;;
13641;SDS011;6894;52.196;9.904;2023-01-30T04:00:23;14.70;;;10.73;;
13641;SDS011;6894;52.196;9.904;2023-01-30T04:02:50;15.83;;;10.80;;
13641;SDS011;6894;52.196;9.904;2023-01-30T04:05:18;12.93;;;9.63;;
13641;SDS011;6894;52.196;9.904;2023-01-30T04:07:45;12.97;;;9.07;;
13641;SDS011;6894;52.196;9.904;2023-01-30T04:10:14;12.43;;;9.27;;
13641;SDS011;6894;52.196;9.904;2023-01-30T04:12:42;18.23;;;11.07;;
13641;SDS011;6894;52.196;9.904;2023-01-30T04:15:09;15.10;;;11.27;;
13641;SDS011;6894;52.196;9.904;2023-01-30T04:17:36;15.93;;;11.83;;
13641;SDS011;6894;52.196;9.904;2023-01-30T04:20:03;13.73;;;10.03;;
13641;SDS011;6894;52.196;9.904;2023-01-30T04:22:31;18.73;;;11.40;;
13641;SDS011;6894;52.196;9.904;2023-01-30T04:24:57;17.03;;;11.27;;
13641;SDS011;6894;52.196;9.904;2023-01-30T04:27:25;17.57;;;11.70;;
13641;SDS011;6894;52.196;9.904;2023-01-30T04:29:52;14.53;;;10.10;;
13641;SDS011;6894;52.196;9.904;2023-01-30T04:32:19;16.00;;;9.73;;
13641;SDS011;6894;52.196;9.904;2023-01-30T04:34:45;10.70;;;8.10;;
13641;SDS011;6894;52.196;9.904;2023-01-30T04:37:12;13.83;;;9.20;;
13641;SDS011;6894;52.196;9.904;2023-01-30T04:39:39;11.23;;;8.97;;
13641;SDS011;6894;52.196;9.904;2023-01-30T04:42:05;11.07;;;8.23;;
13641;SDS011;6894;52.196;9.904;2023-01-30T04:44:34;8.53;;;6.83;;
13641;SDS011;6894;52.196;9.904;2023-01-30T04:47:00;9.17;;;6.90;;
13641;SDS011;6894;52.196;9.904;2023-01-30T04:49:27;9.50;;;6.20;;
13641;SDS011;6894;52.196;9.904;2023-01-30T04:51:54;8.83;;;7.10;;
13641;SDS011;6894;52.196;9.904;2023-01-30T04:54:20;7.73;;;5.93;;
13641;SDS011;6894;52.196;9.904;2023-01-30T04:56:47;10.67;;;6.63;;
13641;SDS011;6894;52.196;9.904;2023-01-30T04:59:14;6.13;;;5.40;;
13641;SDS011;6894;52.196;9.904;2023-01-30T05:01:42;9.53;;;6.83;;
13641;SDS011;6894;52.196;9.904;2023-01-30T05:04:09;9.10;;;6.53;;
13641;SDS011;6894;52.196;9.904;2023-01-30T05:06:36;7.83;;;6.50;;
13641;SDS011;6894;52.196;9.904;2023-01-30T05:09:03;10.27;;;6.77;;
13641;SDS011;6894;52.196;9.904;2023-01-30T05:11:30;7.40;;;5.80;;
13641;SDS011;6894;52.196;9.904;2023-01-30T05:13:57;8.90;;;7.03;;
13641;SDS011;6894;52.196;9.904;2023-01-30T05:16:25;8.93;;;6.97;;
13641;SDS011;6894;52.196;9.904;2023-01-30T05:18:53;10.33;;;7.57;;
13641;SDS011;6894;52.196;9.904;2023-01-30T05:21:20;8.50;;;6.53;;
13641;SDS011;6894;52.196;9.904;2023-01-30T05:23:48;7.37;;;6.57;;
13641;SDS011;6894;52.196;9.904;2023-01-30T05:26:16;10.10;;;7.27;;
13641;SDS011;6894;52.196;9.904;2023-01-30T05:28:43;8.33;;;6.93;;
13641;SDS011;6894;52.196;9.904;2023-01-30T05:31:10;10.20;;;7.83;;
13641;SDS011;6894;52.196;9.904;2023-01-30T05:33:38;8.30;;;7.50;;
13641;SDS011;6894;52.196;9.904;2023-01-30T05:36:07;10.93;;;8.30;;
13641;SDS011;6894;52.196;9.904;2023-01-30T05:38:40;7.57;;;6.53;;
13641;SDS011;6894;52.196;9.904;2023-01-30T05:41:09;9.10;;;7.47;;
13641;SDS011;6894;52.196;9.904;2023-01-30T05:43:36;8.00;;;7.20;;
13641;SDS011;6894;52.196;9.904;2023-01-30T05:46:04;8.50;;;6.63;;
13641;SDS011;6894;52.196;9.904;2023-01-30T05:48:31;6.93;;;6.27;;
13641;SDS011;6894;52.196;9.904;2023-01-30T05:50:58;8.13;;;6.67;;
13641;SDS011;6894;52.196;9.904;2023-01-30T05:53:27;7.00;;;6.30;;
13641;SDS011;6894;52.196;9.904;2023-01-30T05:55:56;8.60;;;6.73;;
13641;SDS011;6894;52.196;9.904;2023-01-30T05:58:23;8.40;;;7.23;;
13641;SDS011;6894;52.196;9.904;2023-01-30T06:00:50;7.60;;;6.53;;
13641;SDS011;6894;52.196;9.904;2023-01-30T06:03:17;9.87;;;7.47;;
13641;SDS011;6894;52.196;9.904;2023-01-30T06:05:44;6.60;;;5.90;;
13641;SDS011;6894;52.196;9.904;2023-01-30T06:08:10;9.10;;;7.03;;
13641;SDS011;6894;52.196;9.904;2023-01-30T06:10:38;9.13;;;7.47;;
13641;SDS011;6894;52.196;9.904;2023-01-30T06:13:05;7.43;;;6.47;;
13641;SDS011;6894;52.196;9.904;2023-01-30T06:15:34;8.90;;;7.07;;
13641;SDS011;6894;52.196;9.904;2023-01-30T06:18:01;7.60;;;6.90;;
13641;SDS011;6894;52.196;9.904;2023-01-30T06:20:28;8.67;;;7.73;;
13641;SDS011;6894;52.196;9.904;2023-01-30T06:22:55;8.43;;;7.00;;
13641;SDS011;6894;52.196;9.904;2023-01-30T06:25:21;8.27;;;6.67;;
13641;SDS011;6894;52.196;9.904;2023-01-30T06:27:49;8.40;;;6.43;;
13641;SDS011;6894;52.196;9.904;2023-01-30T06:30:16;7.60;;;6.33;;
13641;SDS011;6894;52.196;9.904;2023-01-30T06:32:43;6.93;;;6.03;;
13641;SDS011;6894;52.196;9.904;2023-01-30T06:35:10;8.77;;;6.73;;
13641;SDS011;6894;52.196;9.904;2023-01-30T06:37:36;7.50;;;6.23;;
13641;SDS011;6894;52.196;9.904;2023-01-30T06:40:04;7.57;;;6.63;;
13641;SDS011;6894;52.196;9.904;2023-01-30T06:42:31;6.33;;;5.33;;
13641;SDS011;6894;52.196;9.904;2023-01-30T06:44:59;8.20;;;5.03;;
13641;SDS011;6894;52.196;9.904;2023-01-30T06:47:26;8.37;;;4.53;;
13641;SDS011;6894;52.196;9.904;2023-01-30T06:49:53;4.17;;;3.13;;
13641;SDS011;6894;52.196;9.904;2023-01-30T06:52:19;6.90;;;3.33;;
13641;SDS011;6894;52.196;9.904;2023-01-30T06:54:46;4.07;;;2.50;;
13641;SDS011;6894;52.196;9.904;2023-01-30T06:57:13;3.97;;;2.40;;
13641;SDS011;6894;52.196;9.904;2023-01-30T06:59:40;3.83;;;2.27;;
13641;SDS011;6894;52.196;9.904;2023-01-30T07:02:09;2.30;;;1.77;;
13641;SDS011;6894;52.196;9.904;2023-01-30T07:04:37;3.13;;;2.17;;
13641;SDS011;6894;52.196;9.904;2023-01-30T07:07:05;4.37;;;2.57;;
13641;SDS011;6894;52.196;9.904;2023-01-30T07:09:32;4.40;;;2.90;;
13641;SDS011;6894;52.196;9.904;2023-01-30T07:11:58;3.80;;;3.00;;
13641;SDS011;6894;52.196;9.904;2023-01-30T07:14:25;4.87;;;2.97;;
13641;SDS011;6894;52.196;9.904;2023-01-30T07:16:52;5.43;;;2.43;;
13641;SDS011;6894;52.196;9.904;2023-01-30T07:19:20;4.93;;;2.73;;
13641;SDS011;6894;52.196;9.904;2023-01-30T07:21:46;5.53;;;2.27;;
13641;SDS011;6894;52.196;9.904;2023-01-30T07:24:13;4.30;;;2.47;;
13641;SDS011;6894;52.196;9.904;2023-01-30T07:26:40;6.53;;;2.30;;
13641;SDS011;6894;52.196;9.904;2023-01-30T07:29:07;7.47;;;2.50;;
13641;SDS011;6894;52.196;9.904;2023-01-30T07:31:33;7.30;;;2.27;;
13641;SDS011;6894;52.196;9.904;2023-01-30T07:34:00;7.00;;;2.30;;
13641;SDS011;6894;52.196;9.904;2023-01-30T07:36:28;9.40;;;2.53;;
13641;SDS011;6894;52.196;9.904;2023-01-30T07:38:57;5.77;;;2.17;;
13641;SDS011;6894;52.196;9.904;2023-01-30T07:41:25;5.80;;;1.83;;
13641;SDS011;6894;52.196;9.904;2023-01-30T07:43:52;11.57;;;2.73;;
13641;SDS011;6894;52.196;9.904;2023-01-30T07:46:19;5.13;;;1.80;;
13641;SDS011;6894;52.196;9.904;2023-01-30T07:48:45;9.53;;;2.50;;
13641;SDS011;6894;52.196;9.904;2023-01-30T07:51:12;5.47;;;1.70;;
13641;SDS011;6894;52.196;9.904;2023-01-30T07:53:40;4.97;;;2.27;;
13641;SDS011;6894;52.196;9.904;2023-01-30T07:56:07;6.73;;;2.17;;
13641;SDS011;6894;52.196;9.904;2023-01-30T07:58:35;11.33;;;2.67;;
13641;SDS011;6894;52.196;9.904;2023-01-30T08:01:01;7.90;;;2.70;;
13641;SDS011;6894;52.196;9.904;2023-01-30T08:03:28;7.40;;;2.33;;
13641;SDS011;6894;52.196;9.904;2023-01-30T08:05:55;6.73;;;1.90;;
13641;SDS011;6894;52.196;9.904;2023-01-30T08:08:21;13.60;;;2.80;;
13641;SDS011;6894;52.196;9.904;2023-01-30T08:10:50;4.80;;;1.70;;
13641;SDS011;6894;52.196;9.904;2023-01-30T08:13:16;6.70;;;2.13;;
13641;SDS011;6894;52.196;9.904;2023-01-30T08:15:43;6.37;;;1.87;;
13641;SDS011;6894;52.196;9.904;2023-01-30T08:18:10;8.37;;;1.93;;
13641;SDS011;6894;52.196;9.904;2023-01-30T08:20:36;11.93;;;2.40;;
13641;SDS011;6894;52.196;9.904;2023-01-30T08:23:03;9.10;;;2.07;;
13641;SDS011;6894;52.196;9.904;2023-01-30T08:25:30;9.27;;;2.30;;
13641;SDS011;6894;52.196;9.904;2023-01-30T08:27:58;7.63;;;2.00;;
13641;SDS011;6894;52.196;9.904;2023-01-30T08:30:25;8.97;;;2.00;;
13641;SDS011;6894;52.196;9.904;2023-01-30T08:32:52;10.10;;;2.00;;
13641;SDS011;6894;52.196;9.904;2023-01-30T08:35:19;8.90;;;2.30;;
13641;SDS011;6894;52.196;9.904;2023-01-30T08:37:45;6.53;;;1.47;;
13641;SDS011;6894;52.196;9.904;2023-01-30T08:40:13;6.33;;;1.87;;
13641;SDS011;6894;52.196;9.904;2023-01-30T08:42:42;8.07;;;1.70;;
13641;SDS011;6894;52.196;9.904;2023-01-30T08:45:10;6.23;;;1.80;;
13641;SDS011;6894;52.196;9.904;2023-01-30T08:47:37;5.60;;;1.80;;
13641;SDS011;6894;52.196;9.904;2023-01-30T08:50:04;8.97;;;2.40;;
13641;SDS011;6894;52.196;9.904;2023-01-30T08:52:31;9.00;;;2.00;;
13641;SDS011;6894;52.196;9.904;2023-01-30T08:54:58;8.70;;;2.07;;
13641;SDS011;6894;52.196;9.904;2023-01-30T08:57:24;6.23;;;1.43;;
13641;SDS011;6894;52.196;9.904;2023-01-30T08:59:51;10.60;;;2.50;;
13641;SDS011;6894;52.196;9.904;2023-01-30T09:02:19;9.57;;;2.07;;
13641;SDS011;6894;52.196;9.904;2023-01-30T09:04:46;11.37;;;2.13;;
13641;SDS011;6894;52.196;9.904;2023-01-30T09:07:13;6.47;;;1.77;;
13641;SDS011;6894;52.196;9.904;2023-01-30T09:09:39;8.53;;;2.03;;
13641;SDS011;6894;52.196;9.904;2023-01-30T09:12:06;10.07;;;1.83;;
13641;SDS011;6894;52.196;9.904;2023-01-30T09:14:33;9.47;;;2.23;;
13641;SDS011;6894;52.196;9.904;2023-01-30T09:17:00;7.03;;;1.50;;
13641;SDS011;6894;52.196;9.904;2023-01-30T09:19:28;8.30;;;2.63;;
13641;SDS011;6894;52.196;9.904;2023-01-30T09:21:54;8.37;;;1.90;;
13641;SDS011;6894;52.196;9.904;2023-01-30T09:24:21;11.73;;;1.70;;
13641;SDS011;6894;52.196;9.904;2023-01-30T09:26:50;9.00;;;2.50;;
13641;SDS011;6894;52.196;9.904;2023-01-30T09:29:17;8.70;;;2.97;;
13641;SDS011;6894;52.196;9.904;2023-01-30T09:31:44;9.57;;;1.80;;
13641;SDS011;6894;52.196;9.904;2023-01-30T09:34:11;14.90;;;2.20;;
13641;SDS011;6894;52.196;9.904;2023-01-30T09:36:39;11.07;;;2.13;;
13641;SDS011;6894;52.196;9.904;2023-01-30T09:39:06;7.23;;;1.87;;
13641;SDS011;6894;52.196;9.904;2023-01-30T09:41:41;11.33;;;3.57;;
13641;SDS011;6894;52.196;9.904;2023-01-30T09:44:33;8.53;;;1.80;;
13641;SDS011;6894;52.196;9.904;2023-01-30T09:47:19;8.57;;;2.00;;
13641;SDS011;6894;52.196;9.904;2023-01-30T09:49:55;10.30;;;3.23;;
13641;SDS011;6894;52.196;9.904;2023-01-30T09:52:32;7.33;;;2.00;;
13641;SDS011;6894;52.196;9.904;2023-01-30T09:55:13;10.93;;;2.07;;
13641;SDS011;6894;52.196;9.904;2023-01-30T09:57:42;14.37;;;2.00;;
13641;SDS011;6894;52.196;9.904;2023-01-30T10:00:11;9.20;;;2.10;;
13641;SDS011;6894;52.196;9.904;2023-01-30T10:02:46;11.33;;;2.10;;
13641;SDS011;6894;52.196;9.904;2023-01-30T10:05:17;14.80;;;2.87;;
13641;SDS011;6894;52.196;9.904;2023-01-30T10:07:52;9.47;;;2.33;;
13641;SDS011;6894;52.196;9.904;2023-01-30T10:10:33;7.50;;;2.13;;
13641;SDS011;6894;52.196;9.904;2023-01-30T10:13:11;18.30;;;2.60;;
13641;SDS011;6894;52.196;9.904;2023-01-30T10:15:54;8.80;;;1.93;;
13641;SDS011;6894;52.196;9.904;2023-01-30T10:18:33;12.10;;;2.10;;
13641;SDS011;6894;52.196;9.904;2023-01-30T10:21:15;15.27;;;2.17;;
13641;SDS011;6894;52.196;9.904;2023-01-30T10:23:54;11.63;;;2.70;;
13641;SDS011;6894;52.196;9.904;2023-01-30T10:26:31;11.50;;;2.43;;
13641;SDS011;6894;52.196;9.904;2023-01-30T10:28:59;13.60;;;3.70;;
13641;SDS011;6894;52.196;9.904;2023-01-30T10:31:32;8.60;;;2.40;;
13641;SDS011;6894;52.196;9.904;2023-01-30T10:34:05;8.30;;;2.07;;
13641;SDS011;6894;52.196;9.904;2023-01-30T10:36:38;10.83;;;2.53;;
13641;SDS011;6894;52.196;9.904;2023-01-30T10:39:16;17.13;;;1.90;;
13641;SDS011;6894;52.196;9.904;2023-01-30T10:41:51;12.27;;;2.00;;
13641;SDS011;6894;52.196;9.904;2023-01-30T10:44:23;12.83;;;2.40;;
13641;SDS011;6894;52.196;9.904;2023-01-30T10:46:57;9.80;;;1.80;;
13641;SDS011;6894;52.196;9.904;2023-01-30T10:49:40;10.03;;;1.90;;
13641;SDS011;6894;52.196;9.904;2023-01-30T10:52:17;10.83;;;2.40;;
13641;SDS011;6894;52.196;9.904;2023-01-30T10:54:55;9.23;;;1.80;;
13641;SDS011;6894;52.196;9.904;2023-01-30T10:57:33;8.13;;;1.57;;
13641;SDS011;6894;52.196;9.904;2023-01-30T11:00:13;8.33;;;2.10;;
13641;SDS011;6894;52.196;9.904;2023-01-30T11:02:50;7.33;;;1.63;;
13641;SDS011;6894;52.196;9.904;2023-01-30T11:05:25;12.33;;;2.10;;
13641;SDS011;6894;52.196;9.904;2023-01-30T11:08:09;10.60;;;2.33;;
13641;SDS011;6894;52.196;9.904;2023-01-30T11:10:45;10.50;;;2.00;;
13641;SDS011;6894;52.196;9.904;2023-01-30T11:13:13;8.33;;;1.70;;
13641;SDS011;6894;52.196;9.904;2023-01-30T11:15:44;11.70;;;2.73;;
13641;SDS011;6894;52.196;9.904;2023-01-30T11:18:13;9.83;;;2.20;;
13641;SDS011;6894;52.196;9.904;2023-01-30T11:20:42;12.03;;;2.90;;
13641;SDS011;6894;52.196;9.904;2023-01-30T11:23:21;10.67;;;2.27;;
13641;SDS011;6894;52.196;9.904;2023-01-30T11:25:53;13.00;;;2.50;;
13641;SDS011;6894;52.196;9.904;2023-01-30T11:28:22;9.67;;;3.23;;
13641;SDS011;6894;52.196;9.904;2023-01-30T11:30:51;8.83;;;2.53;;
13641;SDS011;6894;52.196;9.904;2023-01-30T11:33:30;11.37;;;2.70;;
13641;SDS011;6894;52.196;9.904;2023-01-30T11:35:59;7.87;;;1.63;;
13641;SDS011;6894;52.196;9.904;2023-01-30T11:38:27;6.23;;;1.70;;
13641;SDS011;6894;52.196;9.904;2023-01-30T11:43:43;7.63;;;1.77;;
13641;SDS011;6894;52.196;9.904;2023-01-30T11:46:10;13.83;;;2.83;;
13641;SDS011;6894;52.196;9.904;2023-01-30T11:48:42;8.80;;;2.67;;
13641;SDS011;6894;52.196;9.904;2023-01-30T11:51:14;6.73;;;1.90;;
13641;SDS011;6894;52.196;9.904;2023-01-30T11:53:43;7.23;;;2.23;;
13641;SDS011;6894;52.196;9.904;2023-01-30T11:56:14;7.73;;;2.33;;
13641;SDS011;6894;52.196;9.904;2023-01-30T11:58:48;10.03;;;2.23;;
13641;SDS011;6894;52.196;9.904;2023-01-30T12:01:24;12.30;;;3.27;;
13641;SDS011;6894;52.196;9.904;2023-01-30T12:03:53;13.03;;;3.30;;
13641;SDS011;6894;52.196;9.904;2023-01-30T12:06:24;11.50;;;3.30;;
13641;SDS011;6894;52.196;9.904;2023-01-30T12:08:55;11.20;;;2.23;;
13641;SDS011;6894;52.196;9.904;2023-01-30T12:11:25;9.27;;;2.40;;
13641;SDS011;6894;52.196;9.904;2023-01-30T12:16:56;11.47;;;2.77;;
13641;SDS011;6894;52.196;9.904;2023-01-30T12:22:21;12.97;;;2.23;;
13641;SDS011;6894;52.196;9.904;2023-01-30T12:24:59;18.73;;;8.07;;
13641;SDS011;6894;52.196;9.904;2023-01-30T12:27:33;8.03;;;2.07;;
13641;SDS011;6894;52.196;9.904;2023-01-30T12:30:15;10.40;;;2.17;;
13641;SDS011;6894;52.196;9.904;2023-01-30T12:32:47;16.67;;;4.40;;
13641;SDS011;6894;52.196;9.904;2023-01-30T12:35:14;11.07;;;2.63;;
13641;SDS011;6894;52.196;9.904;2023-01-30T12:37:45;13.13;;;3.27;;
13641;SDS011;6894;52.196;9.904;2023-01-30T12:40:27;12.80;;;4.30;;
13641;SDS011;6894;52.196;9.904;2023-01-30T12:43:16;12.43;;;5.73;;
13641;SDS011;6894;52.196;9.904;2023-01-30T12:45:54;11.60;;;2.73;;
13641;SDS011;6894;52.196;9.904;2023-01-30T12:48:32;7.57;;;2.10;;
13641;SDS011;6894;52.196;9.904;2023-01-30T12:51:13;4.90;;;1.70;;
13641;SDS011;6894;52.196;9.904;2023-01-30T12:53:50;7.73;;;2.03;;
13641;SDS011;6894;52.196;9.904;2023-01-30T12:56:29;10.23;;;1.67;;
13641;SDS011;6894;52.196;9.904;2023-01-30T12:59:09;14.13;;;3.07;;
13641;SDS011;6894;52.196;9.904;2023-01-30T13:01:46;5.97;;;1.90;;
13641;SDS011;6894;52.196;9.904;2023-01-30T13:04:23;4.40;;;2.27;;
13641;SDS011;6894;52.196;9.904;2023-01-30T13:07:00;10.93;;;3.37;;
13641;SDS011;6894;52.196;9.904;2023-01-30T13:09:38;12.93;;;3.33;;
13641;SDS011;6894;52.196;9.904;2023-01-30T13:12:15;6.47;;;2.03;;
13641;SDS011;6894;52.196;9.904;2023-01-30T13:14:51;5.97;;;2.13;;
13641;SDS011;6894;52.196;9.904;2023-01-30T13:17:30;7.13;;;1.80;;
13641;SDS011;6894;52.196;9.904;2023-01-30T13:20:04;14.63;;;2.73;;
13641;SDS011;6894;52.196;9.904;2023-01-30T13:22:43;13.30;;;2.20;;
13641;SDS011;6894;52.196;9.904;2023-01-30T13:25:18;21.40;;;8.70;;
13641;SDS011;6894;52.196;9.904;2023-01-30T13:27:53;13.47;;;4.33;;
13641;SDS011;6894;52.196;9.904;2023-01-30T13:30:23;21.23;;;6.03;;
13641;SDS011;6894;52.196;9.904;2023-01-30T13:32:53;16.10;;;3.20;;
13641;SDS011;6894;52.196;9.904;2023-01-30T13:35:23;11.60;;;3.90;;
13641;SDS011;6894;52.196;9.904;2023-01-30T13:37:56;13.80;;;3.70;;
13641;SDS011;6894;52.196;9.904;2023-01-30T13:40:24;9.33;;;2.50;;
13641;SDS011;6894;52.196;9.904;2023-01-30T13:42:55;13.63;;;4.23;;
13641;SDS011;6894;52.196;9.904;2023-01-30T13:45:27;7.93;;;1.90;;
13641;SDS011;6894;52.196;9.904;2023-01-30T13:48:00;10.77;;;2.30;;
13641;SDS011;6894;52.196;9.904;2023-01-30T13:50:51;9.17;;;2.57;;
13641;SDS011;6894;52.196;9.904;2023-01-30T13:53:27;16.03;;;4.40;;
13641;SDS011;6894;52.196;9.904;2023-01-30T13:56:00;13.00;;;2.43;;
13641;SDS011;6894;52.196;9.904;2023-01-30T13:58:38;9.77;;;2.23;;
13641;SDS011;6894;52.196;9.904;2023-01-30T14:01:11;9.67;;;2.90;;
13641;SDS011;6894;52.196;9.904;2023-01-30T14:03:39;9.83;;;1.97;;
13641;SDS011;6894;52.196;9.904;2023-01-30T14:06:08;4.97;;;1.40;;
13641;SDS011;6894;52.196;9.904;2023-01-30T14:08:50;7.70;;;3.00;;
13641;SDS011;6894;52.196;9.904;2023-01-30T14:11:36;10.67;;;3.33;;
13641;SDS011;6894;52.196;9.904;2023-01-30T14:14:22;3.90;;;1.10;;
13641;SDS011;6894;52.196;9.904;2023-01-30T14:16:56;9.23;;;3.30;;
13641;SDS011;6894;52.196;9.904;2023-01-30T14:19:43;7.20;;;4.30;;
13641;SDS011;6894;52.196;9.904;2023-01-30T14:22:23;9.50;;;3.50;;
13641;SDS011;6894;52.196;9.904;2023-01-30T14:40:27;10.83;;;6.37;;
13641;SDS011;6894;52.196;9.904;2023-01-30T14:46:05;28.20;;;4.13;;
13641;SDS011;6894;52.196;9.904;2023-01-30T14:48:40;8.97;;;2.37;;
13641;SDS011;6894;52.196;9.904;2023-01-30T14:51:15;10.80;;;2.40;;
13641;SDS011;6894;52.196;9.904;2023-01-30T14:53:49;5.10;;;1.90;;
13641;SDS011;6894;52.196;9.904;2023-01-30T14:56:30;9.20;;;4.00;;
13641;SDS011;6894;52.196;9.904;2023-01-30T14:59:15;26.87;;;13.90;;
13641;SDS011;6894;52.196;9.904;2023-01-30T15:01:56;11.63;;;2.87;;
13641;SDS011;6894;52.196;9.904;2023-01-30T15:04:26;5.53;;;2.07;;
13641;SDS011;6894;52.196;9.904;2023-01-30T15:06:56;12.37;;;3.23;;
13641;SDS011;6894;52.196;9.904;2023-01-30T15:09:27;15.60;;;5.03;;
13641;SDS011;6894;52.196;9.904;2023-01-30T15:12:01;10.43;;;3.50;;
13641;SDS011;6894;52.196;9.904;2023-01-30T15:14:40;12.07;;;4.07;;
13641;SDS011;6894;52.196;9.904;2023-01-30T15:17:17;15.97;;;7.00;;
13641;SDS011;6894;52.196;9.904;2023-01-30T15:20:04;13.43;;;4.93;;
13641;SDS011;6894;52.196;9.904;2023-01-30T15:22:46;9.57;;;3.47;;
13641;SDS011;6894;52.196;9.904;2023-01-30T15:25:43;8.63;;;2.33;;
13641;SDS011;6894;52.196;9.904;2023-01-30T15:28:23;14.40;;;2.83;;
13641;SDS011;6894;52.196;9.904;2023-01-30T15:31:00;5.70;;;1.53;;
13641;SDS011;6894;52.196;9.904;2023-01-30T15:33:33;15.03;;;3.73;;
13641;SDS011;6894;52.196;9.904;2023-01-30T15:36:16;24.10;;;8.83;;
13641;SDS011;6894;52.196;9.904;2023-01-30T15:38:48;11.97;;;3.27;;
13641;SDS011;6894;52.196;9.904;2023-01-30T15:41:21;10.47;;;2.83;;
13641;SDS011;6894;52.196;9.904;2023-01-30T15:43:52;12.23;;;2.40;;